sensor_id;sensor_type;location;lat;lon;timestamp;P1;P2;P0
57884;PMS5003;43703;51.060;-0.086;2022-07-22T00:00:40;4;4;
57884;PMS5003;43703;51.060;-0.086;2022-07-22T00:03:05;6;6;
57884;PMS5003;43703;51.060;-0.086;2022-07-22T00:05:29;5;5;
57884;PMS5003;43703;51.060;-0.086;2022-07-22T00:07:56;4;4;
57884;PMS5003;43703;51.060;-0.086;2022-07-22T00:10:21;4;4;
57884;PMS5003;43703;51.060;-0.086;2022-07-22T00:12:46;5;4;
57884;PMS5003;43703;51.060;-0.086;2022-07-22T00:15:10;6;6;
57884;PMS5003;43703;51.060;-0.086;2022-07-22T00:17:35;4;4;
57884;PMS5003;43703;51.060;-0.086;2022-07-22T00:20:00;4;4;
57884;PMS5003;43703;51.060;-0.086;2022-07-22T00:22:25;6;6;
57884;PMS5003;43703;51.060;-0.086;2022-07-22T00:24:52;6;4;
57884;PMS5003;43703;51.060;-0.086;2022-07-22T00:27:17;4;4;
57884;PMS5003;43703;51.060;-0.086;2022-07-22T00:29:41;3;3;
57884;PMS5003;43703;51.060;-0.086;2022-07-22T00:32:07;5;5;
57884;PMS5003;43703;51.060;-0.086;2022-07-22T00:34:31;4;4;
57884;PMS5003;43703;51.060;-0.086;2022-07-22T00:36:56;7;5;
57884;PMS5003;43703;51.060;-0.086;2022-07-22T00:39:21;6;5;
57884;PMS5003;43703;51.060;-0.086;2022-07-22T00:41:47;3;3;
57884;PMS5003;43703;51.060;-0.086;2022-07-22T00:44:11;6;6;
57884;PMS5003;43703;51.060;-0.086;2022-07-22T00:46:37;7;6;
57884;PMS5003;43703;51.060;-0.086;2022-07-22T00:49:02;6;6;
57884;PMS5003;43703;51.060;-0.086;2022-07-22T00:51:27;5;5;
57884;PMS5003;43703;51.060;-0.086;2022-07-22T00:53:57;6;6;
57884;PMS5003;43703;51.060;-0.086;2022-07-22T00:56:17;6;5;
57884;PMS5003;43703;51.060;-0.086;2022-07-22T00:58:43;6;6;
57884;PMS5003;43703;51.060;-0.086;2022-07-22T01:01:07;4;4;
57884;PMS5003;43703;51.060;-0.086;2022-07-22T01:03:32;5;5;
57884;PMS5003;43703;51.060;-0.086;2022-07-22T01:05:57;6;6;
57884;PMS5003;43703;51.060;-0.086;2022-07-22T01:08:22;5;5;
57884;PMS5003;43703;51.060;-0.086;2022-07-22T01:10:48;7;6;
57884;PMS5003;43703;51.060;-0.086;2022-07-22T01:13:13;6;5;
57884;PMS5003;43703;51.060;-0.086;2022-07-22T01:15:37;5;4;
57884;PMS5003;43703;51.060;-0.086;2022-07-22T01:18:04;11;6;
57884;PMS5003;43703;51.060;-0.086;2022-07-22T01:20:28;7;7;
57884;PMS5003;43703;51.060;-0.086;2022-07-22T01:22:54;6;6;
57884;PMS5003;43703;51.060;-0.086;2022-07-22T01:25:18;7;6;
57884;PMS5003;43703;51.060;-0.086;2022-07-22T01:27:43;5;5;
57884;PMS5003;43703;51.060;-0.086;2022-07-22T01:30:08;5;5;
57884;PMS5003;43703;51.060;-0.086;2022-07-22T01:32:34;7;4;
57884;PMS5003;43703;51.060;-0.086;2022-07-22T01:34:59;5;4;
57884;PMS5003;43703;51.060;-0.086;2022-07-22T01:37:24;5;4;
57884;PMS5003;43703;51.060;-0.086;2022-07-22T01:39:49;8;5;
57884;PMS5003;43703;51.060;-0.086;2022-07-22T01:42:15;7;7;
57884;PMS5003;43703;51.060;-0.086;2022-07-22T01:44:40;6;6;
57884;PMS5003;43703;51.060;-0.086;2022-07-22T01:47:07;5;4;
57884;PMS5003;43703;51.060;-0.086;2022-07-22T01:49:31;7;7;
57884;PMS5003;43703;51.060;-0.086;2022-07-22T01:51:56;6;5;
57884;PMS5003;43703;51.060;-0.086;2022-07-22T01:54:22;8;8;
57884;PMS5003;43703;51.060;-0.086;2022-07-22T01:56:47;4;4;
57884;PMS5003;43703;51.060;-0.086;2022-07-22T01:59:12;7;6;
57884;PMS5003;43703;51.060;-0.086;2022-07-22T02:01:37;5;3;
57884;PMS5003;43703;51.060;-0.086;2022-07-22T02:04:02;5;5;
57884;PMS5003;43703;51.060;-0.086;2022-07-22T02:06:27;3;3;
57884;PMS5003;43703;51.060;-0.086;2022-07-22T02:08:52;5;4;
57884;PMS5003;43703;51.060;-0.086;2022-07-22T02:11:17;8;6;
57884;PMS5003;43703;51.060;-0.086;2022-07-22T02:13:42;4;4;
57884;PMS5003;43703;51.060;-0.086;2022-07-22T02:16:08;6;5;
57884;PMS5003;43703;51.060;-0.086;2022-07-22T02:18:32;5;5;
57884;PMS5003;43703;51.060;-0.086;2022-07-22T02:20:57;7;5;
57884;PMS5003;43703;51.060;-0.086;2022-07-22T02:23:23;6;6;
57884;PMS5003;43703;51.060;-0.086;2022-07-22T02:25:47;6;5;
57884;PMS5003;43703;51.060;-0.086;2022-07-22T02:28:13;7;5;
57884;PMS5003;43703;51.060;-0.086;2022-07-22T02:30:38;3;3;
57884;PMS5003;43703;51.060;-0.086;2022-07-22T02:33:02;7;7;
57884;PMS5003;43703;51.060;-0.086;2022-07-22T02:35:27;8;5;
57884;PMS5003;43703;51.060;-0.086;2022-07-22T02:37:53;5;5;
57884;PMS5003;43703;51.060;-0.086;2022-07-22T02:40:18;7;5;
57884;PMS5003;43703;51.060;-0.086;2022-07-22T02:42:43;5;4;
57884;PMS5003;43703;51.060;-0.086;2022-07-22T02:45:08;7;6;
57884;PMS5003;43703;51.060;-0.086;2022-07-22T02:47:34;4;4;
57884;PMS5003;43703;51.060;-0.086;2022-07-22T02:49:59;5;5;
57884;PMS5003;43703;51.060;-0.086;2022-07-22T02:52:24;6;5;
57884;PMS5003;43703;51.060;-0.086;2022-07-22T02:54:49;5;5;
57884;PMS5003;43703;51.060;-0.086;2022-07-22T02:57:14;9;6;
57884;PMS5003;43703;51.060;-0.086;2022-07-22T02:59:39;4;4;
57884;PMS5003;43703;51.060;-0.086;2022-07-22T03:02:04;4;4;
57884;PMS5003;43703;51.060;-0.086;2022-07-22T03:04:30;8;6;
57884;PMS5003;43703;51.060;-0.086;2022-07-22T03:06:56;3;3;
57884;PMS5003;43703;51.060;-0.086;2022-07-22T03:09:21;3;3;
57884;PMS5003;43703;51.060;-0.086;2022-07-22T03:11:47;3;3;
57884;PMS5003;43703;51.060;-0.086;2022-07-22T03:14:13;5;4;
57884;PMS5003;43703;51.060;-0.086;2022-07-22T03:16:38;3;3;
57884;PMS5003;43703;51.060;-0.086;2022-07-22T03:19:03;5;5;
57884;PMS5003;43703;51.060;-0.086;2022-07-22T03:21:28;5;5;
57884;PMS5003;43703;51.060;-0.086;2022-07-22T03:23:55;3;3;
57884;PMS5003;43703;51.060;-0.086;2022-07-22T03:26:19;3;3;
57884;PMS5003;43703;51.060;-0.086;2022-07-22T03:28:44;3;3;
57884;PMS5003;43703;51.060;-0.086;2022-07-22T03:31:09;3;3;
57884;PMS5003;43703;51.060;-0.086;2022-07-22T03:33:34;6;5;
57884;PMS5003;43703;51.060;-0.086;2022-07-22T03:35:59;5;4;
57884;PMS5003;43703;51.060;-0.086;2022-07-22T03:38:24;3;3;
57884;PMS5003;43703;51.060;-0.086;2022-07-22T03:40:49;3;3;
57884;PMS5003;43703;51.060;-0.086;2022-07-22T03:43:14;5;4;
57884;PMS5003;43703;51.060;-0.086;2022-07-22T03:45:38;5;4;
57884;PMS5003;43703;51.060;-0.086;2022-07-22T03:48:04;4;3;
57884;PMS5003;43703;51.060;-0.086;2022-07-22T03:50:29;4;4;
57884;PMS5003;43703;51.060;-0.086;2022-07-22T03:52:54;5;5;
57884;PMS5003;43703;51.060;-0.086;2022-07-22T03:55:19;7;4;
57884;PMS5003;43703;51.060;-0.086;2022-07-22T03:57:44;3;3;
57884;PMS5003;43703;51.060;-0.086;2022-07-22T04:00:09;4;2;
57884;PMS5003;43703;51.060;-0.086;2022-07-22T04:02:34;6;4;
57884;PMS5003;43703;51.060;-0.086;2022-07-22T04:04:59;4;4;
57884;PMS5003;43703;51.060;-0.086;2022-07-22T04:07:25;5;5;
57884;PMS5003;43703;51.060;-0.086;2022-07-22T04:09:50;5;5;
57884;PMS5003;43703;51.060;-0.086;2022-07-22T04:12:15;4;4;
57884;PMS5003;43703;51.060;-0.086;2022-07-22T04:14:40;5;3;
57884;PMS5003;43703;51.060;-0.086;2022-07-22T04:17:05;4;4;
57884;PMS5003;43703;51.060;-0.086;2022-07-22T04:19:30;4;4;
57884;PMS5003;43703;51.060;-0.086;2022-07-22T04:21:55;9;5;
57884;PMS5003;43703;51.060;-0.086;2022-07-22T04:24:20;5;4;
57884;PMS5003;43703;51.060;-0.086;2022-07-22T04:26:45;4;2;
57884;PMS5003;43703;51.060;-0.086;2022-07-22T04:29:10;4;4;
57884;PMS5003;43703;51.060;-0.086;2022-07-22T04:31:36;4;3;
57884;PMS5003;43703;51.060;-0.086;2022-07-22T04:34:01;6;6;
57884;PMS5003;43703;51.060;-0.086;2022-07-22T04:36:26;6;6;
57884;PMS5003;43703;51.060;-0.086;2022-07-22T04:38:51;6;4;
57884;PMS5003;43703;51.060;-0.086;2022-07-22T04:41:16;5;4;
57884;PMS5003;43703;51.060;-0.086;2022-07-22T04:43:41;5;3;
57884;PMS5003;43703;51.060;-0.086;2022-07-22T04:46:06;4;4;
57884;PMS5003;43703;51.060;-0.086;2022-07-22T04:48:32;10;4;
57884;PMS5003;43703;51.060;-0.086;2022-07-22T04:50:58;5;5;
57884;PMS5003;43703;51.060;-0.086;2022-07-22T04:53:22;4;4;
57884;PMS5003;43703;51.060;-0.086;2022-07-22T04:55:47;5;5;
57884;PMS5003;43703;51.060;-0.086;2022-07-22T04:58:12;3;3;
57884;PMS5003;43703;51.060;-0.086;2022-07-22T05:00:37;6;6;
57884;PMS5003;43703;51.060;-0.086;2022-07-22T05:03:02;3;3;
57884;PMS5003;43703;51.060;-0.086;2022-07-22T05:05:27;6;6;
57884;PMS5003;43703;51.060;-0.086;2022-07-22T05:07:52;5;3;
57884;PMS5003;43703;51.060;-0.086;2022-07-22T05:10:17;6;5;
57884;PMS5003;43703;51.060;-0.086;2022-07-22T05:12:43;4;4;
57884;PMS5003;43703;51.060;-0.086;2022-07-22T05:15:07;3;3;
57884;PMS5003;43703;51.060;-0.086;2022-07-22T05:17:32;4;4;
57884;PMS5003;43703;51.060;-0.086;2022-07-22T05:19:57;5;5;
57884;PMS5003;43703;51.060;-0.086;2022-07-22T05:22:22;6;6;
57884;PMS5003;43703;51.060;-0.086;2022-07-22T05:24:47;6;6;
57884;PMS5003;43703;51.060;-0.086;2022-07-22T05:27:12;8;5;
57884;PMS5003;43703;51.060;-0.086;2022-07-22T05:29:38;7;6;
57884;PMS5003;43703;51.060;-0.086;2022-07-22T05:32:03;4;4;
57884;PMS5003;43703;51.060;-0.086;2022-07-22T05:34:32;4;4;
57884;PMS5003;43703;51.060;-0.086;2022-07-22T05:36:53;5;5;
57884;PMS5003;43703;51.060;-0.086;2022-07-22T05:39:18;4;3;
57884;PMS5003;43703;51.060;-0.086;2022-07-22T05:41:43;3;3;
57884;PMS5003;43703;51.060;-0.086;2022-07-22T05:44:09;5;5;
57884;PMS5003;43703;51.060;-0.086;2022-07-22T05:46:34;4;4;
57884;PMS5003;43703;51.060;-0.086;2022-07-22T05:48:59;5;4;
57884;PMS5003;43703;51.060;-0.086;2022-07-22T05:51:24;4;4;
57884;PMS5003;43703;51.060;-0.086;2022-07-22T05:53:50;3;3;
57884;PMS5003;43703;51.060;-0.086;2022-07-22T05:56:16;3;3;
57884;PMS5003;43703;51.060;-0.086;2022-07-22T05:58:41;5;5;
57884;PMS5003;43703;51.060;-0.086;2022-07-22T06:01:06;5;5;
57884;PMS5003;43703;51.060;-0.086;2022-07-22T06:03:32;6;4;
57884;PMS5003;43703;51.060;-0.086;2022-07-22T06:05:57;4;4;
57884;PMS5003;43703;51.060;-0.086;2022-07-22T06:08:22;3;3;
57884;PMS5003;43703;51.060;-0.086;2022-07-22T06:10:47;4;4;
57884;PMS5003;43703;51.060;-0.086;2022-07-22T06:13:13;4;4;
57884;PMS5003;43703;51.060;-0.086;2022-07-22T06:15:38;3;3;
57884;PMS5003;43703;51.060;-0.086;2022-07-22T06:18:05;4;2;
57884;PMS5003;43703;51.060;-0.086;2022-07-22T06:20:31;6;5;
57884;PMS5003;43703;51.060;-0.086;2022-07-22T06:22:57;6;5;
57884;PMS5003;43703;51.060;-0.086;2022-07-22T06:25:22;4;4;
57884;PMS5003;43703;51.060;-0.086;2022-07-22T06:27:48;3;3;
57884;PMS5003;43703;51.060;-0.086;2022-07-22T06:30:14;6;5;
57884;PMS5003;43703;51.060;-0.086;2022-07-22T06:32:39;5;5;
57884;PMS5003;43703;51.060;-0.086;2022-07-22T06:35:05;3;3;
57884;PMS5003;43703;51.060;-0.086;2022-07-22T06:37:31;4;4;
57884;PMS5003;43703;51.060;-0.086;2022-07-22T06:39:57;6;4;
57884;PMS5003;43703;51.060;-0.086;2022-07-22T06:42:22;4;3;
57884;PMS5003;43703;51.060;-0.086;2022-07-22T06:44:47;4;4;
57884;PMS5003;43703;51.060;-0.086;2022-07-22T06:47:13;5;4;
57884;PMS5003;43703;51.060;-0.086;2022-07-22T06:49:38;4;4;
57884;PMS5003;43703;51.060;-0.086;2022-07-22T06:52:03;4;4;
57884;PMS5003;43703;51.060;-0.086;2022-07-22T06:54:28;4;4;
57884;PMS5003;43703;51.060;-0.086;2022-07-22T06:56:53;4;4;
57884;PMS5003;43703;51.060;-0.086;2022-07-22T06:59:18;3;3;
57884;PMS5003;43703;51.060;-0.086;2022-07-22T07:01:44;4;4;
57884;PMS5003;43703;51.060;-0.086;2022-07-22T07:04:09;7;6;
57884;PMS5003;43703;51.060;-0.086;2022-07-22T07:06:34;5;5;
57884;PMS5003;43703;51.060;-0.086;2022-07-22T07:09:00;5;3;
57884;PMS5003;43703;51.060;-0.086;2022-07-22T07:11:26;3;3;
57884;PMS5003;43703;51.060;-0.086;2022-07-22T07:13:51;5;5;
57884;PMS5003;43703;51.060;-0.086;2022-07-22T07:16:17;3;3;
57884;PMS5003;43703;51.060;-0.086;2022-07-22T07:18:43;6;4;
57884;PMS5003;43703;51.060;-0.086;2022-07-22T07:21:09;5;5;
57884;PMS5003;43703;51.060;-0.086;2022-07-22T07:23:34;4;4;
57884;PMS5003;43703;51.060;-0.086;2022-07-22T07:26:00;4;4;
57884;PMS5003;43703;51.060;-0.086;2022-07-22T07:28:26;5;5;
57884;PMS5003;43703;51.060;-0.086;2022-07-22T07:30:52;4;4;
57884;PMS5003;43703;51.060;-0.086;2022-07-22T07:33:18;2;2;
57884;PMS5003;43703;51.060;-0.086;2022-07-22T07:35:44;3;3;
57884;PMS5003;43703;51.060;-0.086;2022-07-22T07:38:10;4;4;
57884;PMS5003;43703;51.060;-0.086;2022-07-22T07:40:35;7;5;
57884;PMS5003;43703;51.060;-0.086;2022-07-22T07:43:01;4;4;
57884;PMS5003;43703;51.060;-0.086;2022-07-22T07:45:27;7;5;
57884;PMS5003;43703;51.060;-0.086;2022-07-22T07:47:53;4;4;
57884;PMS5003;43703;51.060;-0.086;2022-07-22T07:50:19;4;4;
57884;PMS5003;43703;51.060;-0.086;2022-07-22T07:52:45;7;5;
57884;PMS5003;43703;51.060;-0.086;2022-07-22T07:55:11;5;5;
57884;PMS5003;43703;51.060;-0.086;2022-07-22T07:57:36;4;4;
57884;PMS5003;43703;51.060;-0.086;2022-07-22T08:00:03;8;5;
57884;PMS5003;43703;51.060;-0.086;2022-07-22T08:02:28;5;5;
57884;PMS5003;43703;51.060;-0.086;2022-07-22T08:04:54;3;3;
57884;PMS5003;43703;51.060;-0.086;2022-07-22T08:07:20;5;4;
57884;PMS5003;43703;51.060;-0.086;2022-07-22T08:09:46;4;4;
57884;PMS5003;43703;51.060;-0.086;2022-07-22T08:12:11;2;2;
57884;PMS5003;43703;51.060;-0.086;2022-07-22T08:14:37;6;4;
57884;PMS5003;43703;51.060;-0.086;2022-07-22T08:17:03;5;5;
57884;PMS5003;43703;51.060;-0.086;2022-07-22T08:19:29;3;2;
57884;PMS5003;43703;51.060;-0.086;2022-07-22T08:21:55;4;4;
57884;PMS5003;43703;51.060;-0.086;2022-07-22T08:24:25;2;2;
57884;PMS5003;43703;51.060;-0.086;2022-07-22T08:26:47;4;4;
57884;PMS5003;43703;51.060;-0.086;2022-07-22T08:29:12;5;5;
57884;PMS5003;43703;51.060;-0.086;2022-07-22T08:31:38;8;5;
57884;PMS5003;43703;51.060;-0.086;2022-07-22T08:34:05;5;5;
57884;PMS5003;43703;51.060;-0.086;2022-07-22T08:36:30;8;6;
57884;PMS5003;43703;51.060;-0.086;2022-07-22T08:38:56;6;6;
57884;PMS5003;43703;51.060;-0.086;2022-07-22T08:41:22;5;5;
57884;PMS5003;43703;51.060;-0.086;2022-07-22T08:43:47;4;4;
57884;PMS5003;43703;51.060;-0.086;2022-07-22T08:46:13;4;4;
57884;PMS5003;43703;51.060;-0.086;2022-07-22T08:48:39;4;4;
57884;PMS5003;43703;51.060;-0.086;2022-07-22T08:51:05;4;4;
57884;PMS5003;43703;51.060;-0.086;2022-07-22T08:53:30;3;3;
57884;PMS5003;43703;51.060;-0.086;2022-07-22T08:55:56;4;4;
57884;PMS5003;43703;51.060;-0.086;2022-07-22T08:58:22;4;4;
57884;PMS5003;43703;51.060;-0.086;2022-07-22T09:00:50;2;2;
57884;PMS5003;43703;51.060;-0.086;2022-07-22T09:03:17;5;5;
57884;PMS5003;43703;51.060;-0.086;2022-07-22T09:05:39;4;4;
57884;PMS5003;43703;51.060;-0.086;2022-07-22T09:08:05;3;3;
57884;PMS5003;43703;51.060;-0.086;2022-07-22T09:10:32;5;5;
57884;PMS5003;43703;51.060;-0.086;2022-07-22T09:12:58;4;4;
57884;PMS5003;43703;51.060;-0.086;2022-07-22T09:17:49;5;4;
57884;PMS5003;43703;51.060;-0.086;2022-07-22T09:20:15;6;6;
57884;PMS5003;43703;51.060;-0.086;2022-07-22T09:22:41;4;4;
57884;PMS5003;43703;51.060;-0.086;2022-07-22T09:27:31;6;6;
57884;PMS5003;43703;51.060;-0.086;2022-07-22T09:29:57;5;5;
57884;PMS5003;43703;51.060;-0.086;2022-07-22T09:32:30;3;3;
57884;PMS5003;43703;51.060;-0.086;2022-07-22T09:37:16;6;6;
57884;PMS5003;43703;51.060;-0.086;2022-07-22T09:39:41;4;4;
57884;PMS5003;43703;51.060;-0.086;2022-07-22T09:42:06;7;5;
57884;PMS5003;43703;51.060;-0.086;2022-07-22T09:44:32;6;6;
57884;PMS5003;43703;51.060;-0.086;2022-07-22T09:46:57;6;6;
57884;PMS5003;43703;51.060;-0.086;2022-07-22T09:51:49;4;4;
57884;PMS5003;43703;51.060;-0.086;2022-07-22T09:54:15;4;4;
57884;PMS5003;43703;51.060;-0.086;2022-07-22T09:56:41;5;5;
57884;PMS5003;43703;51.060;-0.086;2022-07-22T09:59:07;4;4;
57884;PMS5003;43703;51.060;-0.086;2022-07-22T10:01:34;5;5;
57884;PMS5003;43703;51.060;-0.086;2022-07-22T10:03:58;8;7;
57884;PMS5003;43703;51.060;-0.086;2022-07-22T10:06:24;4;4;
57884;PMS5003;43703;51.060;-0.086;2022-07-22T10:08:50;6;6;
57884;PMS5003;43703;51.060;-0.086;2022-07-22T10:11:16;6;6;
57884;PMS5003;43703;51.060;-0.086;2022-07-22T10:13:42;7;7;
57884;PMS5003;43703;51.060;-0.086;2022-07-22T10:16:07;10;10;
57884;PMS5003;43703;51.060;-0.086;2022-07-22T10:18:32;9;9;
57884;PMS5003;43703;51.060;-0.086;2022-07-22T10:21:01;11;11;
57884;PMS5003;43703;51.060;-0.086;2022-07-22T10:23:23;7;7;
57884;PMS5003;43703;51.060;-0.086;2022-07-22T10:25:51;5;5;
57884;PMS5003;43703;51.060;-0.086;2022-07-22T10:30:40;7;5;
57884;PMS5003;43703;51.060;-0.086;2022-07-22T10:33:07;4;4;
57884;PMS5003;43703;51.060;-0.086;2022-07-22T10:35:33;7;5;
57884;PMS5003;43703;51.060;-0.086;2022-07-22T10:38:00;6;6;
57884;PMS5003;43703;51.060;-0.086;2022-07-22T10:40:25;5;5;
57884;PMS5003;43703;51.060;-0.086;2022-07-22T10:45:15;3;3;
57884;PMS5003;43703;51.060;-0.086;2022-07-22T10:52:34;4;4;
57884;PMS5003;43703;51.060;-0.086;2022-07-22T10:57:29;5;5;
57884;PMS5003;43703;51.060;-0.086;2022-07-22T10:59:53;6;4;
57884;PMS5003;43703;51.060;-0.086;2022-07-22T11:02:16;6;6;
57884;PMS5003;43703;51.060;-0.086;2022-07-22T11:04:42;4;4;
57884;PMS5003;43703;51.060;-0.086;2022-07-22T11:07:08;5;5;
57884;PMS5003;43703;51.060;-0.086;2022-07-22T11:09:34;3;3;
57884;PMS5003;43703;51.060;-0.086;2022-07-22T11:11:59;7;5;
57884;PMS5003;43703;51.060;-0.086;2022-07-22T11:14:27;4;4;
57884;PMS5003;43703;51.060;-0.086;2022-07-22T11:16:52;4;4;
57884;PMS5003;43703;51.060;-0.086;2022-07-22T11:19:21;4;4;
57884;PMS5003;43703;51.060;-0.086;2022-07-22T11:21:48;4;4;
57884;PMS5003;43703;51.060;-0.086;2022-07-22T11:24:09;5;4;
57884;PMS5003;43703;51.060;-0.086;2022-07-22T11:26:36;7;4;
57884;PMS5003;43703;51.060;-0.086;2022-07-22T11:29:00;6;6;
57884;PMS5003;43703;51.060;-0.086;2022-07-22T11:31:26;7;4;
57884;PMS5003;43703;51.060;-0.086;2022-07-22T11:33:52;3;3;
57884;PMS5003;43703;51.060;-0.086;2022-07-22T11:36:18;4;4;
57884;PMS5003;43703;51.060;-0.086;2022-07-22T11:38:45;6;4;
57884;PMS5003;43703;51.060;-0.086;2022-07-22T11:41:10;5;5;
57884;PMS5003;43703;51.060;-0.086;2022-07-22T11:43:39;4;4;
57884;PMS5003;43703;51.060;-0.086;2022-07-22T11:46:01;5;5;
57884;PMS5003;43703;51.060;-0.086;2022-07-22T11:48:27;4;4;
57884;PMS5003;43703;51.060;-0.086;2022-07-22T11:50:58;4;4;
57884;PMS5003;43703;51.060;-0.086;2022-07-22T11:53:19;4;4;
57884;PMS5003;43703;51.060;-0.086;2022-07-22T11:55:45;3;3;
57884;PMS5003;43703;51.060;-0.086;2022-07-22T11:58:10;4;4;
57884;PMS5003;43703;51.060;-0.086;2022-07-22T12:00:36;5;4;
57884;PMS5003;43703;51.060;-0.086;2022-07-22T12:03:02;6;5;
57884;PMS5003;43703;51.060;-0.086;2022-07-22T12:05:29;3;3;
57884;PMS5003;43703;51.060;-0.086;2022-07-22T12:07:54;5;4;
57884;PMS5003;43703;51.060;-0.086;2022-07-22T12:10:20;4;4;
57884;PMS5003;43703;51.060;-0.086;2022-07-22T12:12:46;5;5;
57884;PMS5003;43703;51.060;-0.086;2022-07-22T12:15:11;6;5;
57884;PMS5003;43703;51.060;-0.086;2022-07-22T12:17:37;6;6;
57884;PMS5003;43703;51.060;-0.086;2022-07-22T12:22:29;6;6;
57884;PMS5003;43703;51.060;-0.086;2022-07-22T12:24:57;7;7;
57884;PMS5003;43703;51.060;-0.086;2022-07-22T12:27:20;9;7;
57884;PMS5003;43703;51.060;-0.086;2022-07-22T12:29:47;8;7;
57884;PMS5003;43703;51.060;-0.086;2022-07-22T12:32:15;8;5;
57884;PMS5003;43703;51.060;-0.086;2022-07-22T12:34:39;8;8;
57884;PMS5003;43703;51.060;-0.086;2022-07-22T12:39:29;8;7;
57884;PMS5003;43703;51.060;-0.086;2022-07-22T12:41:54;5;5;
57884;PMS5003;43703;51.060;-0.086;2022-07-22T12:44:21;8;7;
57884;PMS5003;43703;51.060;-0.086;2022-07-22T12:46:46;6;6;
57884;PMS5003;43703;51.060;-0.086;2022-07-22T12:49:10;8;8;
57884;PMS5003;43703;51.060;-0.086;2022-07-22T12:51:36;8;7;
57884;PMS5003;43703;51.060;-0.086;2022-07-22T12:54:02;5;5;
57884;PMS5003;43703;51.060;-0.086;2022-07-22T12:56:28;5;5;
57884;PMS5003;43703;51.060;-0.086;2022-07-22T12:58:53;9;8;
57884;PMS5003;43703;51.060;-0.086;2022-07-22T13:01:19;6;6;
57884;PMS5003;43703;51.060;-0.086;2022-07-22T13:03:45;8;8;
57884;PMS5003;43703;51.060;-0.086;2022-07-22T13:06:10;8;8;
57884;PMS5003;43703;51.060;-0.086;2022-07-22T13:08:36;6;6;
57884;PMS5003;43703;51.060;-0.086;2022-07-22T13:11:01;8;8;
57884;PMS5003;43703;51.060;-0.086;2022-07-22T13:13:26;10;10;
57884;PMS5003;43703;51.060;-0.086;2022-07-22T13:15:51;8;8;
57884;PMS5003;43703;51.060;-0.086;2022-07-22T13:18:16;10;10;
57884;PMS5003;43703;51.060;-0.086;2022-07-22T13:20:42;10;10;
57884;PMS5003;43703;51.060;-0.086;2022-07-22T13:23:07;7;6;
57884;PMS5003;43703;51.060;-0.086;2022-07-22T13:25:33;8;8;
57884;PMS5003;43703;51.060;-0.086;2022-07-22T13:27:59;8;7;
57884;PMS5003;43703;51.060;-0.086;2022-07-22T13:30:24;7;7;
57884;PMS5003;43703;51.060;-0.086;2022-07-22T13:32:50;8;8;
57884;PMS5003;43703;51.060;-0.086;2022-07-22T13:35:16;10;10;
57884;PMS5003;43703;51.060;-0.086;2022-07-22T13:37:42;6;5;
57884;PMS5003;43703;51.060;-0.086;2022-07-22T13:40:08;7;7;
57884;PMS5003;43703;51.060;-0.086;2022-07-22T13:42:34;12;10;
57884;PMS5003;43703;51.060;-0.086;2022-07-22T13:45:04;10;10;
57884;PMS5003;43703;51.060;-0.086;2022-07-22T13:47:29;8;8;
57884;PMS5003;43703;51.060;-0.086;2022-07-22T13:49:51;9;8;
57884;PMS5003;43703;51.060;-0.086;2022-07-22T13:52:16;8;8;
57884;PMS5003;43703;51.060;-0.086;2022-07-22T13:54:42;8;8;
57884;PMS5003;43703;51.060;-0.086;2022-07-22T13:57:13;8;8;
57884;PMS5003;43703;51.060;-0.086;2022-07-22T13:59:34;7;7;
57884;PMS5003;43703;51.060;-0.086;2022-07-22T14:02:00;8;8;
57884;PMS5003;43703;51.060;-0.086;2022-07-22T14:04:27;8;8;
57884;PMS5003;43703;51.060;-0.086;2022-07-22T14:06:51;7;7;
57884;PMS5003;43703;51.060;-0.086;2022-07-22T14:09:16;9;9;
57884;PMS5003;43703;51.060;-0.086;2022-07-22T14:11:42;7;7;
57884;PMS5003;43703;51.060;-0.086;2022-07-22T14:14:07;9;9;
57884;PMS5003;43703;51.060;-0.086;2022-07-22T14:16:35;10;8;
57884;PMS5003;43703;51.060;-0.086;2022-07-22T14:18:59;9;9;
57884;PMS5003;43703;51.060;-0.086;2022-07-22T14:21:26;6;6;
57884;PMS5003;43703;51.060;-0.086;2022-07-22T14:23:53;7;7;
57884;PMS5003;43703;51.060;-0.086;2022-07-22T14:26:15;7;6;
57884;PMS5003;43703;51.060;-0.086;2022-07-22T14:28:40;8;8;
57884;PMS5003;43703;51.060;-0.086;2022-07-22T14:31:06;8;6;
57884;PMS5003;43703;51.060;-0.086;2022-07-22T14:33:32;5;5;
57884;PMS5003;43703;51.060;-0.086;2022-07-22T14:35:58;8;8;
57884;PMS5003;43703;51.060;-0.086;2022-07-22T14:38:23;6;6;
57884;PMS5003;43703;51.060;-0.086;2022-07-22T14:40:48;5;5;
57884;PMS5003;43703;51.060;-0.086;2022-07-22T14:43:14;8;8;
57884;PMS5003;43703;51.060;-0.086;2022-07-22T14:45:38;10;10;
57884;PMS5003;43703;51.060;-0.086;2022-07-22T14:48:05;10;10;
57884;PMS5003;43703;51.060;-0.086;2022-07-22T14:50:29;9;9;
57884;PMS5003;43703;51.060;-0.086;2022-07-22T14:52:55;10;9;
57884;PMS5003;43703;51.060;-0.086;2022-07-22T14:55:20;10;10;
57884;PMS5003;43703;51.060;-0.086;2022-07-22T14:57:45;11;9;
57884;PMS5003;43703;51.060;-0.086;2022-07-22T15:00:10;8;8;
57884;PMS5003;43703;51.060;-0.086;2022-07-22T15:02:35;11;8;
57884;PMS5003;43703;51.060;-0.086;2022-07-22T15:05:00;7;7;
57884;PMS5003;43703;51.060;-0.086;2022-07-22T15:07:25;10;9;
57884;PMS5003;43703;51.060;-0.086;2022-07-22T15:09:50;10;10;
57884;PMS5003;43703;51.060;-0.086;2022-07-22T15:12:16;12;12;
57884;PMS5003;43703;51.060;-0.086;2022-07-22T15:14:41;7;7;
57884;PMS5003;43703;51.060;-0.086;2022-07-22T15:17:08;8;7;
57884;PMS5003;43703;51.060;-0.086;2022-07-22T15:19:32;9;9;
57884;PMS5003;43703;51.060;-0.086;2022-07-22T15:21:57;9;9;
57884;PMS5003;43703;51.060;-0.086;2022-07-22T15:24:22;13;10;
57884;PMS5003;43703;51.060;-0.086;2022-07-22T15:26:47;9;9;
57884;PMS5003;43703;51.060;-0.086;2022-07-22T15:29:12;8;8;
57884;PMS5003;43703;51.060;-0.086;2022-07-22T15:31:37;7;7;
57884;PMS5003;43703;51.060;-0.086;2022-07-22T15:34:03;7;7;
57884;PMS5003;43703;51.060;-0.086;2022-07-22T15:36:28;12;9;
57884;PMS5003;43703;51.060;-0.086;2022-07-22T15:38:53;12;11;
57884;PMS5003;43703;51.060;-0.086;2022-07-22T15:41:18;10;9;
57884;PMS5003;43703;51.060;-0.086;2022-07-22T15:43:44;10;9;
57884;PMS5003;43703;51.060;-0.086;2022-07-22T15:46:10;14;10;
57884;PMS5003;43703;51.060;-0.086;2022-07-22T15:48:34;8;7;
57884;PMS5003;43703;51.060;-0.086;2022-07-22T15:50:59;10;9;
57884;PMS5003;43703;51.060;-0.086;2022-07-22T15:53:25;9;9;
57884;PMS5003;43703;51.060;-0.086;2022-07-22T15:55:50;11;9;
57884;PMS5003;43703;51.060;-0.086;2022-07-22T15:58:15;6;6;
57884;PMS5003;43703;51.060;-0.086;2022-07-22T16:00:40;9;9;
57884;PMS5003;43703;51.060;-0.086;2022-07-22T16:03:05;7;7;
57884;PMS5003;43703;51.060;-0.086;2022-07-22T16:05:31;10;8;
57884;PMS5003;43703;51.060;-0.086;2022-07-22T16:07:56;8;7;
57884;PMS5003;43703;51.060;-0.086;2022-07-22T16:10:22;8;8;
57884;PMS5003;43703;51.060;-0.086;2022-07-22T16:12:48;7;7;
57884;PMS5003;43703;51.060;-0.086;2022-07-22T16:15:14;8;8;
57884;PMS5003;43703;51.060;-0.086;2022-07-22T16:17:40;7;7;
57884;PMS5003;43703;51.060;-0.086;2022-07-22T16:20:06;9;9;
57884;PMS5003;43703;51.060;-0.086;2022-07-22T16:22:32;7;7;
57884;PMS5003;43703;51.060;-0.086;2022-07-22T16:24:57;7;7;
57884;PMS5003;43703;51.060;-0.086;2022-07-22T16:27:23;6;6;
57884;PMS5003;43703;51.060;-0.086;2022-07-22T16:29:48;6;6;
57884;PMS5003;43703;51.060;-0.086;2022-07-22T16:32:13;9;9;
57884;PMS5003;43703;51.060;-0.086;2022-07-22T16:34:38;7;7;
57884;PMS5003;43703;51.060;-0.086;2022-07-22T16:37:04;7;7;
57884;PMS5003;43703;51.060;-0.086;2022-07-22T16:39:30;10;10;
57884;PMS5003;43703;51.060;-0.086;2022-07-22T16:41:56;7;7;
57884;PMS5003;43703;51.060;-0.086;2022-07-22T16:44:21;10;8;